SBBW

Details ICAO SBBW
Name BARRA DO GARCAS
Region Brazil
Timezone America/Cuiaba (UTC-3.0)
Plans Departing 12
Arriving 9
Stats Elevation 1,147 ft / 350 m (AMSL)
Location -15.861343° -52.388893°
Runways 1
Magnetic Variation 19.527° W
Sunrise 2017-12-17 08:55:06 UTC / 2017-12-17 05:55:06 Local
Sunset 2017-12-17 21:59:07 UTC / 2017-12-17 18:59:07 Local
Advertisement - Login to hide

Runways

ID Width Length Bearing (true) Bearing (mag) Surface Threshold Offset Overrun Length
07 98 ft / 30 m 5,256 ft / 1,602 m 50.89° 70.42° Asphalt 0 ft / 0 m 190 ft / 58 m
25 98 ft / 30 m 5,256 ft / 1,602 m 230.89° 250.42° Asphalt 0 ft / 0 m 190 ft / 58 m

Map

Weather


0- 5 10 15 20 25 30 35+ Temperature / ° C

Clouds and Precipitation
Forecast for 2017-12-17 18:00 UTC. Updated an hour ago

Ground ~20,000 ft ~40,000 ft Winds

METAR

Not found

TAF

TAF SBBW 171000Z 1712/1724 07004KT 9999 BKN015 TX29/1718Z TN24/1723Z BECMG 1713/1715 SCT020 FEW030TCU PROB40 1716/1720 8000 TSRA SCT018 FEW025CB RMK PDS

Frequencies

Tower 125.90 MHz GARCAS RDO
Warning: Do not use this data for real-world aviation or navigation. No guarantee of current accuracy is given.